sensor_id;sensor_type;location;lat;lon;timestamp;P1;durP1;ratioP1;P2;durP2;ratioP2
76393;SDS011;65216;51.090;-115.352;2024-03-02T00:01:36;8.60;;;1.40;;
76393;SDS011;65216;51.090;-115.352;2024-03-02T00:04:04;8.90;;;1.60;;
76393;SDS011;65216;51.090;-115.352;2024-03-02T00:06:33;10.00;;;1.50;;
76393;SDS011;65216;51.090;-115.352;2024-03-02T00:09:00;10.80;;;1.70;;
76393;SDS011;65216;51.090;-115.352;2024-03-02T00:11:38;9.10;;;1.50;;
76393;SDS011;65216;51.090;-115.352;2024-03-02T00:14:05;8.20;;;1.60;;
76393;SDS011;65216;51.090;-115.352;2024-03-02T00:16:35;11.60;;;1.70;;
76393;SDS011;65216;51.090;-115.352;2024-03-02T00:19:11;12.90;;;1.60;;
76393;SDS011;65216;51.090;-115.352;2024-03-02T00:21:38;7.80;;;1.40;;
76393;SDS011;65216;51.090;-115.352;2024-03-02T00:24:19;8.30;;;1.30;;
76393;SDS011;65216;51.090;-115.352;2024-03-02T00:26:52;12.10;;;1.50;;
76393;SDS011;65216;51.090;-115.352;2024-03-02T00:29:19;10.10;;;2.00;;
76393;SDS011;65216;51.090;-115.352;2024-03-02T00:31:47;8.00;;;1.30;;
76393;SDS011;65216;51.090;-115.352;2024-03-02T00:34:14;10.70;;;1.40;;
76393;SDS011;65216;51.090;-115.352;2024-03-02T00:36:42;7.70;;;1.30;;
76393;SDS011;65216;51.090;-115.352;2024-03-02T00:39:12;9.80;;;1.40;;
76393;SDS011;65216;51.090;-115.352;2024-03-02T00:41:43;9.20;;;1.40;;
76393;SDS011;65216;51.090;-115.352;2024-03-02T00:44:16;10.40;;;1.30;;
76393;SDS011;65216;51.090;-115.352;2024-03-02T00:46:46;10.10;;;1.50;;
76393;SDS011;65216;51.090;-115.352;2024-03-02T00:51:53;14.10;;;2.80;;
76393;SDS011;65216;51.090;-115.352;2024-03-02T00:54:23;15.80;;;1.60;;
76393;SDS011;65216;51.090;-115.352;2024-03-02T00:56:57;12.80;;;1.60;;
76393;SDS011;65216;51.090;-115.352;2024-03-02T00:59:24;15.30;;;1.90;;
76393;SDS011;65216;51.090;-115.352;2024-03-02T01:01:52;9.30;;;1.50;;
76393;SDS011;65216;51.090;-115.352;2024-03-02T01:04:19;11.30;;;1.70;;
76393;SDS011;65216;51.090;-115.352;2024-03-02T01:06:46;13.90;;;1.80;;
76393;SDS011;65216;51.090;-115.352;2024-03-02T01:09:16;10.90;;;2.20;;
76393;SDS011;65216;51.090;-115.352;2024-03-02T01:11:51;14.90;;;1.80;;
76393;SDS011;65216;51.090;-115.352;2024-03-02T01:14:18;12.40;;;2.20;;
76393;SDS011;65216;51.090;-115.352;2024-03-02T01:16:45;12.60;;;1.80;;
76393;SDS011;65216;51.090;-115.352;2024-03-02T01:19:12;11.80;;;1.70;;
76393;SDS011;65216;51.090;-115.352;2024-03-02T01:21:40;15.30;;;1.50;;
76393;SDS011;65216;51.090;-115.352;2024-03-02T01:24:07;16.60;;;1.80;;
76393;SDS011;65216;51.090;-115.352;2024-03-02T01:26:37;8.90;;;1.60;;
76393;SDS011;65216;51.090;-115.352;2024-03-02T01:29:06;13.00;;;2.30;;
76393;SDS011;65216;51.090;-115.352;2024-03-02T01:31:33;13.00;;;1.90;;
76393;SDS011;65216;51.090;-115.352;2024-03-02T01:33:59;11.50;;;1.70;;
76393;SDS011;65216;51.090;-115.352;2024-03-02T01:36:26;14.00;;;1.90;;
76393;SDS011;65216;51.090;-115.352;2024-03-02T01:38:53;15.20;;;1.50;;
76393;SDS011;65216;51.090;-115.352;2024-03-02T01:41:20;16.00;;;2.30;;
76393;SDS011;65216;51.090;-115.352;2024-03-02T01:43:49;13.10;;;1.90;;
76393;SDS011;65216;51.090;-115.352;2024-03-02T01:46:16;11.40;;;1.40;;
76393;SDS011;65216;51.090;-115.352;2024-03-02T01:48:43;16.30;;;1.40;;
76393;SDS011;65216;51.090;-115.352;2024-03-02T01:51:10;12.40;;;1.50;;
76393;SDS011;65216;51.090;-115.352;2024-03-02T01:53:37;14.80;;;1.50;;
76393;SDS011;65216;51.090;-115.352;2024-03-02T01:56:04;12.30;;;1.80;;
76393;SDS011;65216;51.090;-115.352;2024-03-02T01:58:31;11.30;;;1.60;;
76393;SDS011;65216;51.090;-115.352;2024-03-02T02:01:01;20.50;;;1.90;;
76393;SDS011;65216;51.090;-115.352;2024-03-02T02:03:28;13.80;;;1.50;;
76393;SDS011;65216;51.090;-115.352;2024-03-02T02:05:55;13.60;;;1.40;;
76393;SDS011;65216;51.090;-115.352;2024-03-02T02:08:22;11.70;;;1.70;;
76393;SDS011;65216;51.090;-115.352;2024-03-02T02:10:49;17.20;;;1.60;;
76393;SDS011;65216;51.090;-115.352;2024-03-02T02:13:16;11.00;;;1.40;;
76393;SDS011;65216;51.090;-115.352;2024-03-02T02:15:43;16.20;;;2.40;;
76393;SDS011;65216;51.090;-115.352;2024-03-02T02:18:10;15.00;;;1.80;;
76393;SDS011;65216;51.090;-115.352;2024-03-02T02:20:37;14.00;;;1.50;;
76393;SDS011;65216;51.090;-115.352;2024-03-02T02:23:04;19.30;;;2.20;;
76393;SDS011;65216;51.090;-115.352;2024-03-02T02:25:33;12.10;;;1.70;;
76393;SDS011;65216;51.090;-115.352;2024-03-02T02:28:00;16.80;;;2.10;;
76393;SDS011;65216;51.090;-115.352;2024-03-02T02:30:29;23.90;;;1.80;;
76393;SDS011;65216;51.090;-115.352;2024-03-02T02:32:58;13.90;;;2.00;;
76393;SDS011;65216;51.090;-115.352;2024-03-02T02:35:28;12.60;;;1.90;;
76393;SDS011;65216;51.090;-115.352;2024-03-02T02:37:55;16.40;;;1.60;;
76393;SDS011;65216;51.090;-115.352;2024-03-02T02:40:24;14.90;;;1.60;;
76393;SDS011;65216;51.090;-115.352;2024-03-02T02:42:51;12.60;;;2.00;;
76393;SDS011;65216;51.090;-115.352;2024-03-02T02:45:18;13.00;;;1.60;;
76393;SDS011;65216;51.090;-115.352;2024-03-02T02:47:45;16.90;;;1.70;;
76393;SDS011;65216;51.090;-115.352;2024-03-02T02:50:12;14.10;;;1.70;;
76393;SDS011;65216;51.090;-115.352;2024-03-02T02:52:41;11.30;;;1.40;;
76393;SDS011;65216;51.090;-115.352;2024-03-02T02:55:12;9.90;;;1.90;;
76393;SDS011;65216;51.090;-115.352;2024-03-02T02:57:41;11.50;;;1.50;;
76393;SDS011;65216;51.090;-115.352;2024-03-02T03:00:14;14.80;;;1.90;;
76393;SDS011;65216;51.090;-115.352;2024-03-02T03:02:47;11.20;;;1.50;;
76393;SDS011;65216;51.090;-115.352;2024-03-02T03:05:15;11.60;;;1.90;;
76393;SDS011;65216;51.090;-115.352;2024-03-02T03:07:43;12.00;;;1.40;;
76393;SDS011;65216;51.090;-115.352;2024-03-02T03:10:10;10.90;;;2.10;;
76393;SDS011;65216;51.090;-115.352;2024-03-02T03:12:37;8.60;;;1.40;;
76393;SDS011;65216;51.090;-115.352;2024-03-02T03:15:07;15.50;;;1.40;;
76393;SDS011;65216;51.090;-115.352;2024-03-02T03:17:35;16.00;;;1.60;;
76393;SDS011;65216;51.090;-115.352;2024-03-02T03:20:03;9.90;;;1.70;;
76393;SDS011;65216;51.090;-115.352;2024-03-02T03:22:31;14.50;;;1.80;;
76393;SDS011;65216;51.090;-115.352;2024-03-02T03:25:02;17.50;;;2.00;;
76393;SDS011;65216;51.090;-115.352;2024-03-02T03:27:29;12.50;;;1.50;;
76393;SDS011;65216;51.090;-115.352;2024-03-02T03:29:59;14.60;;;2.10;;
76393;SDS011;65216;51.090;-115.352;2024-03-02T03:32:26;15.00;;;1.70;;
76393;SDS011;65216;51.090;-115.352;2024-03-02T03:34:59;13.00;;;1.70;;
76393;SDS011;65216;51.090;-115.352;2024-03-02T03:37:25;15.00;;;1.80;;
76393;SDS011;65216;51.090;-115.352;2024-03-02T03:40:00;20.20;;;2.00;;
76393;SDS011;65216;51.090;-115.352;2024-03-02T03:42:28;12.00;;;1.60;;
76393;SDS011;65216;51.090;-115.352;2024-03-02T03:44:58;15.20;;;1.60;;
76393;SDS011;65216;51.090;-115.352;2024-03-02T03:47:24;13.20;;;1.50;;
76393;SDS011;65216;51.090;-115.352;2024-03-02T03:49:52;20.00;;;1.80;;
76393;SDS011;65216;51.090;-115.352;2024-03-02T03:52:19;10.40;;;1.60;;
76393;SDS011;65216;51.090;-115.352;2024-03-02T03:54:47;19.80;;;2.20;;
76393;SDS011;65216;51.090;-115.352;2024-03-02T03:57:14;12.70;;;1.60;;
76393;SDS011;65216;51.090;-115.352;2024-03-02T03:59:42;15.20;;;1.80;;
76393;SDS011;65216;51.090;-115.352;2024-03-02T04:02:10;20.10;;;1.90;;
76393;SDS011;65216;51.090;-115.352;2024-03-02T04:04:38;11.40;;;1.40;;
76393;SDS011;65216;51.090;-115.352;2024-03-02T04:07:09;14.30;;;1.70;;
76393;SDS011;65216;51.090;-115.352;2024-03-02T04:09:37;9.80;;;1.60;;
76393;SDS011;65216;51.090;-115.352;2024-03-02T04:12:07;11.70;;;1.60;;
76393;SDS011;65216;51.090;-115.352;2024-03-02T04:14:36;9.30;;;1.30;;
76393;SDS011;65216;51.090;-115.352;2024-03-02T04:17:03;13.00;;;2.00;;
76393;SDS011;65216;51.090;-115.352;2024-03-02T04:19:32;12.10;;;1.60;;
76393;SDS011;65216;51.090;-115.352;2024-03-02T04:21:58;12.30;;;1.40;;
76393;SDS011;65216;51.090;-115.352;2024-03-02T04:24:25;10.40;;;1.30;;
76393;SDS011;65216;51.090;-115.352;2024-03-02T04:26:56;10.10;;;1.30;;
76393;SDS011;65216;51.090;-115.352;2024-03-02T04:29:22;12.60;;;1.50;;
76393;SDS011;65216;51.090;-115.352;2024-03-02T04:31:49;9.90;;;1.50;;
76393;SDS011;65216;51.090;-115.352;2024-03-02T04:34:16;10.00;;;1.30;;
76393;SDS011;65216;51.090;-115.352;2024-03-02T04:36:43;8.90;;;1.30;;
76393;SDS011;65216;51.090;-115.352;2024-03-02T04:39:11;7.00;;;1.60;;
76393;SDS011;65216;51.090;-115.352;2024-03-02T04:41:38;11.80;;;1.70;;
76393;SDS011;65216;51.090;-115.352;2024-03-02T04:44:05;13.30;;;1.50;;
76393;SDS011;65216;51.090;-115.352;2024-03-02T04:46:34;12.40;;;1.50;;
76393;SDS011;65216;51.090;-115.352;2024-03-02T04:49:01;9.80;;;1.10;;
76393;SDS011;65216;51.090;-115.352;2024-03-02T04:51:29;19.90;;;1.50;;
76393;SDS011;65216;51.090;-115.352;2024-03-02T04:53:55;6.20;;;1.20;;
76393;SDS011;65216;51.090;-115.352;2024-03-02T04:56:22;8.40;;;1.70;;
76393;SDS011;65216;51.090;-115.352;2024-03-02T04:58:58;10.10;;;1.30;;
76393;SDS011;65216;51.090;-115.352;2024-03-02T05:01:25;8.60;;;1.40;;
76393;SDS011;65216;51.090;-115.352;2024-03-02T05:03:56;6.60;;;1.10;;
76393;SDS011;65216;51.090;-115.352;2024-03-02T05:06:25;7.70;;;1.10;;
76393;SDS011;65216;51.090;-115.352;2024-03-02T05:08:52;7.10;;;0.90;;
76393;SDS011;65216;51.090;-115.352;2024-03-02T05:11:19;8.50;;;1.10;;
76393;SDS011;65216;51.090;-115.352;2024-03-02T05:14:15;4.30;;;1.00;;
76393;SDS011;65216;51.090;-115.352;2024-03-02T05:16:42;5.10;;;0.90;;
76393;SDS011;65216;51.090;-115.352;2024-03-02T05:19:09;3.50;;;0.80;;
76393;SDS011;65216;51.090;-115.352;2024-03-02T05:21:36;4.40;;;1.10;;
76393;SDS011;65216;51.090;-115.352;2024-03-02T05:24:03;5.80;;;0.70;;
76393;SDS011;65216;51.090;-115.352;2024-03-02T05:26:37;2.70;;;0.90;;
76393;SDS011;65216;51.090;-115.352;2024-03-02T05:29:05;4.30;;;0.80;;
76393;SDS011;65216;51.090;-115.352;2024-03-02T05:31:33;4.80;;;0.90;;
76393;SDS011;65216;51.090;-115.352;2024-03-02T05:33:59;3.10;;;0.90;;
76393;SDS011;65216;51.090;-115.352;2024-03-02T05:36:28;1.50;;;0.60;;
76393;SDS011;65216;51.090;-115.352;2024-03-02T05:38:57;3.20;;;0.60;;
76393;SDS011;65216;51.090;-115.352;2024-03-02T05:41:26;3.50;;;0.70;;
76393;SDS011;65216;51.090;-115.352;2024-03-02T05:43:53;3.00;;;0.60;;
76393;SDS011;65216;51.090;-115.352;2024-03-02T05:46:20;2.50;;;0.70;;
76393;SDS011;65216;51.090;-115.352;2024-03-02T05:48:48;1.70;;;0.80;;
76393;SDS011;65216;51.090;-115.352;2024-03-02T05:51:14;3.00;;;0.60;;
76393;SDS011;65216;51.090;-115.352;2024-03-02T05:53:41;1.80;;;0.70;;
76393;SDS011;65216;51.090;-115.352;2024-03-02T05:56:08;1.70;;;0.50;;
76393;SDS011;65216;51.090;-115.352;2024-03-02T05:58:38;1.10;;;0.50;;
76393;SDS011;65216;51.090;-115.352;2024-03-02T06:01:23;1.90;;;0.60;;
76393;SDS011;65216;51.090;-115.352;2024-03-02T06:03:58;1.10;;;0.40;;
76393;SDS011;65216;51.090;-115.352;2024-03-02T06:06:24;1.50;;;0.50;;
76393;SDS011;65216;51.090;-115.352;2024-03-02T06:08:51;3.00;;;0.70;;
76393;SDS011;65216;51.090;-115.352;2024-03-02T06:11:22;2.30;;;0.60;;
76393;SDS011;65216;51.090;-115.352;2024-03-02T06:13:48;1.20;;;0.50;;
76393;SDS011;65216;51.090;-115.352;2024-03-02T06:16:15;1.10;;;0.50;;
76393;SDS011;65216;51.090;-115.352;2024-03-02T06:18:42;0.90;;;0.40;;
76393;SDS011;65216;51.090;-115.352;2024-03-02T06:21:09;1.20;;;0.60;;
76393;SDS011;65216;51.090;-115.352;2024-03-02T06:23:36;1.10;;;0.50;;
76393;SDS011;65216;51.090;-115.352;2024-03-02T06:26:03;1.70;;;0.50;;
76393;SDS011;65216;51.090;-115.352;2024-03-02T06:28:30;1.40;;;0.40;;
76393;SDS011;65216;51.090;-115.352;2024-03-02T06:30:56;1.00;;;0.50;;
76393;SDS011;65216;51.090;-115.352;2024-03-02T06:33:26;2.00;;;0.40;;
76393;SDS011;65216;51.090;-115.352;2024-03-02T06:35:53;3.30;;;0.70;;
76393;SDS011;65216;51.090;-115.352;2024-03-02T06:38:20;1.10;;;0.60;;
76393;SDS011;65216;51.090;-115.352;2024-03-02T06:40:47;0.60;;;0.30;;
76393;SDS011;65216;51.090;-115.352;2024-03-02T06:43:13;0.80;;;0.40;;
76393;SDS011;65216;51.090;-115.352;2024-03-02T06:45:40;1.50;;;0.60;;
76393;SDS011;65216;51.090;-115.352;2024-03-02T06:48:07;0.90;;;0.50;;
76393;SDS011;65216;51.090;-115.352;2024-03-02T06:50:34;1.10;;;0.40;;
76393;SDS011;65216;51.090;-115.352;2024-03-02T06:53:01;1.00;;;0.50;;
76393;SDS011;65216;51.090;-115.352;2024-03-02T06:55:30;1.00;;;0.40;;
76393;SDS011;65216;51.090;-115.352;2024-03-02T06:57:56;1.10;;;0.60;;
76393;SDS011;65216;51.090;-115.352;2024-03-02T07:00:23;0.80;;;0.50;;
76393;SDS011;65216;51.090;-115.352;2024-03-02T07:02:50;1.00;;;0.40;;
76393;SDS011;65216;51.090;-115.352;2024-03-02T07:05:17;1.60;;;0.40;;
76393;SDS011;65216;51.090;-115.352;2024-03-02T07:07:44;1.60;;;0.50;;
76393;SDS011;65216;51.090;-115.352;2024-03-02T07:10:10;1.10;;;0.50;;
76393;SDS011;65216;51.090;-115.352;2024-03-02T07:12:37;0.90;;;0.40;;
76393;SDS011;65216;51.090;-115.352;2024-03-02T07:15:05;1.60;;;0.50;;
76393;SDS011;65216;51.090;-115.352;2024-03-02T07:17:32;0.90;;;0.30;;
76393;SDS011;65216;51.090;-115.352;2024-03-02T07:19:59;0.80;;;0.40;;
76393;SDS011;65216;51.090;-115.352;2024-03-02T07:22:26;1.30;;;0.40;;
76393;SDS011;65216;51.090;-115.352;2024-03-02T07:24:52;0.70;;;0.50;;
76393;SDS011;65216;51.090;-115.352;2024-03-02T07:27:19;0.60;;;0.50;;
76393;SDS011;65216;51.090;-115.352;2024-03-02T07:29:46;0.50;;;0.40;;
76393;SDS011;65216;51.090;-115.352;2024-03-02T07:32:13;0.90;;;0.50;;
76393;SDS011;65216;51.090;-115.352;2024-03-02T07:34:40;1.10;;;0.50;;
76393;SDS011;65216;51.090;-115.352;2024-03-02T07:37:07;1.40;;;0.50;;
76393;SDS011;65216;51.090;-115.352;2024-03-02T07:39:34;0.90;;;0.40;;
76393;SDS011;65216;51.090;-115.352;2024-03-02T07:42:04;0.90;;;0.50;;
76393;SDS011;65216;51.090;-115.352;2024-03-02T07:44:32;1.60;;;0.50;;
76393;SDS011;65216;51.090;-115.352;2024-03-02T07:46:58;1.30;;;0.50;;
76393;SDS011;65216;51.090;-115.352;2024-03-02T07:49:25;0.80;;;0.50;;
76393;SDS011;65216;51.090;-115.352;2024-03-02T07:51:52;1.40;;;0.50;;
76393;SDS011;65216;51.090;-115.352;2024-03-02T07:54:19;1.20;;;0.60;;
76393;SDS011;65216;51.090;-115.352;2024-03-02T07:56:45;0.90;;;0.50;;
76393;SDS011;65216;51.090;-115.352;2024-03-02T07:59:13;0.80;;;0.60;;
76393;SDS011;65216;51.090;-115.352;2024-03-02T08:01:44;1.10;;;0.40;;
76393;SDS011;65216;51.090;-115.352;2024-03-02T08:04:11;0.90;;;0.40;;
76393;SDS011;65216;51.090;-115.352;2024-03-02T08:06:38;1.40;;;0.60;;
76393;SDS011;65216;51.090;-115.352;2024-03-02T08:09:05;0.80;;;0.50;;
76393;SDS011;65216;51.090;-115.352;2024-03-02T08:11:36;1.40;;;0.60;;
76393;SDS011;65216;51.090;-115.352;2024-03-02T08:14:05;1.80;;;0.70;;
76393;SDS011;65216;51.090;-115.352;2024-03-02T08:16:31;1.00;;;0.50;;
76393;SDS011;65216;51.090;-115.352;2024-03-02T08:18:59;1.00;;;0.50;;
76393;SDS011;65216;51.090;-115.352;2024-03-02T08:21:26;2.00;;;0.50;;
76393;SDS011;65216;51.090;-115.352;2024-03-02T08:23:57;1.40;;;0.50;;
76393;SDS011;65216;51.090;-115.352;2024-03-02T08:26:25;2.30;;;0.50;;
76393;SDS011;65216;51.090;-115.352;2024-03-02T08:28:56;1.90;;;0.60;;
76393;SDS011;65216;51.090;-115.352;2024-03-02T08:31:23;1.70;;;0.60;;
76393;SDS011;65216;51.090;-115.352;2024-03-02T08:33:53;1.10;;;0.50;;
76393;SDS011;65216;51.090;-115.352;2024-03-02T08:36:25;0.80;;;0.50;;
76393;SDS011;65216;51.090;-115.352;2024-03-02T08:38:55;2.10;;;0.60;;
76393;SDS011;65216;51.090;-115.352;2024-03-02T08:41:22;1.10;;;0.50;;
76393;SDS011;65216;51.090;-115.352;2024-03-02T08:43:51;0.80;;;0.40;;
76393;SDS011;65216;51.090;-115.352;2024-03-02T08:46:18;1.10;;;0.50;;
76393;SDS011;65216;51.090;-115.352;2024-03-02T08:48:45;0.70;;;0.50;;
76393;SDS011;65216;51.090;-115.352;2024-03-02T08:51:12;1.00;;;0.40;;
76393;SDS011;65216;51.090;-115.352;2024-03-02T08:53:41;1.30;;;0.60;;
76393;SDS011;65216;51.090;-115.352;2024-03-02T08:56:09;1.00;;;0.60;;
76393;SDS011;65216;51.090;-115.352;2024-03-02T08:58:39;1.60;;;0.60;;
76393;SDS011;65216;51.090;-115.352;2024-03-02T09:01:06;1.20;;;0.50;;
76393;SDS011;65216;51.090;-115.352;2024-03-02T09:03:34;0.90;;;0.50;;
76393;SDS011;65216;51.090;-115.352;2024-03-02T09:06:01;1.20;;;0.50;;
76393;SDS011;65216;51.090;-115.352;2024-03-02T09:08:28;1.60;;;0.80;;
76393;SDS011;65216;51.090;-115.352;2024-03-02T09:10:56;0.90;;;0.40;;
76393;SDS011;65216;51.090;-115.352;2024-03-02T09:13:23;1.10;;;0.60;;
76393;SDS011;65216;51.090;-115.352;2024-03-02T09:15:49;1.00;;;0.40;;
76393;SDS011;65216;51.090;-115.352;2024-03-02T09:18:16;1.20;;;0.50;;
76393;SDS011;65216;51.090;-115.352;2024-03-02T09:20:45;0.80;;;0.40;;
76393;SDS011;65216;51.090;-115.352;2024-03-02T09:23:12;1.80;;;0.70;;
76393;SDS011;65216;51.090;-115.352;2024-03-02T09:25:39;1.60;;;0.70;;
76393;SDS011;65216;51.090;-115.352;2024-03-02T09:28:10;1.10;;;0.60;;
76393;SDS011;65216;51.090;-115.352;2024-03-02T09:30:37;1.10;;;0.40;;
76393;SDS011;65216;51.090;-115.352;2024-03-02T09:33:04;1.10;;;0.60;;
76393;SDS011;65216;51.090;-115.352;2024-03-02T09:35:32;1.10;;;0.50;;
76393;SDS011;65216;51.090;-115.352;2024-03-02T09:37:59;1.00;;;0.50;;
76393;SDS011;65216;51.090;-115.352;2024-03-02T09:40:25;1.50;;;0.60;;
76393;SDS011;65216;51.090;-115.352;2024-03-02T09:42:54;1.30;;;0.70;;
76393;SDS011;65216;51.090;-115.352;2024-03-02T09:45:25;1.40;;;0.60;;
76393;SDS011;65216;51.090;-115.352;2024-03-02T09:47:52;0.80;;;0.50;;
76393;SDS011;65216;51.090;-115.352;2024-03-02T09:50:19;0.80;;;0.50;;
76393;SDS011;65216;51.090;-115.352;2024-03-02T09:52:49;1.70;;;0.60;;
76393;SDS011;65216;51.090;-115.352;2024-03-02T09:55:16;1.40;;;0.60;;
76393;SDS011;65216;51.090;-115.352;2024-03-02T09:57:45;1.00;;;0.60;;
76393;SDS011;65216;51.090;-115.352;2024-03-02T10:00:15;2.00;;;0.70;;
76393;SDS011;65216;51.090;-115.352;2024-03-02T10:02:43;1.30;;;0.60;;
76393;SDS011;65216;51.090;-115.352;2024-03-02T10:05:12;0.70;;;0.30;;
76393;SDS011;65216;51.090;-115.352;2024-03-02T10:07:39;1.50;;;0.60;;
76393;SDS011;65216;51.090;-115.352;2024-03-02T10:10:16;1.20;;;0.50;;
76393;SDS011;65216;51.090;-115.352;2024-03-02T10:12:43;1.50;;;0.50;;
76393;SDS011;65216;51.090;-115.352;2024-03-02T10:15:10;1.20;;;0.50;;
76393;SDS011;65216;51.090;-115.352;2024-03-02T10:17:36;1.40;;;0.60;;
76393;SDS011;65216;51.090;-115.352;2024-03-02T10:20:25;2.00;;;0.80;;
76393;SDS011;65216;51.090;-115.352;2024-03-02T10:22:55;0.80;;;0.50;;
76393;SDS011;65216;51.090;-115.352;2024-03-02T10:25:35;0.60;;;0.50;;
76393;SDS011;65216;51.090;-115.352;2024-03-02T10:28:02;1.00;;;0.50;;
76393;SDS011;65216;51.090;-115.352;2024-03-02T10:30:32;1.20;;;0.50;;
76393;SDS011;65216;51.090;-115.352;2024-03-02T10:33:01;0.60;;;0.30;;
76393;SDS011;65216;51.090;-115.352;2024-03-02T10:35:29;1.20;;;0.50;;
76393;SDS011;65216;51.090;-115.352;2024-03-02T10:38:04;1.10;;;0.50;;
76393;SDS011;65216;51.090;-115.352;2024-03-02T10:40:32;0.90;;;0.50;;
76393;SDS011;65216;51.090;-115.352;2024-03-02T10:43:00;0.60;;;0.40;;
76393;SDS011;65216;51.090;-115.352;2024-03-02T10:45:31;1.20;;;0.60;;
76393;SDS011;65216;51.090;-115.352;2024-03-02T10:48:02;0.80;;;0.40;;
76393;SDS011;65216;51.090;-115.352;2024-03-02T10:50:31;1.00;;;0.30;;
76393;SDS011;65216;51.090;-115.352;2024-03-02T10:52:58;1.20;;;0.50;;
76393;SDS011;65216;51.090;-115.352;2024-03-02T10:55:25;1.10;;;0.60;;
76393;SDS011;65216;51.090;-115.352;2024-03-02T10:57:55;0.80;;;0.50;;
76393;SDS011;65216;51.090;-115.352;2024-03-02T11:00:24;0.50;;;0.40;;
76393;SDS011;65216;51.090;-115.352;2024-03-02T11:03:05;0.90;;;0.40;;
76393;SDS011;65216;51.090;-115.352;2024-03-02T11:05:38;0.60;;;0.40;;
76393;SDS011;65216;51.090;-115.352;2024-03-02T11:08:08;1.00;;;0.60;;
76393;SDS011;65216;51.090;-115.352;2024-03-02T11:10:51;1.40;;;0.60;;
76393;SDS011;65216;51.090;-115.352;2024-03-02T11:13:30;0.60;;;0.40;;
76393;SDS011;65216;51.090;-115.352;2024-03-02T11:16:06;1.40;;;0.50;;
76393;SDS011;65216;51.090;-115.352;2024-03-02T11:18:40;1.40;;;0.60;;
76393;SDS011;65216;51.090;-115.352;2024-03-02T11:21:08;2.70;;;0.60;;
76393;SDS011;65216;51.090;-115.352;2024-03-02T11:23:37;0.70;;;0.50;;
76393;SDS011;65216;51.090;-115.352;2024-03-02T11:26:20;1.50;;;0.50;;
76393;SDS011;65216;51.090;-115.352;2024-03-02T11:28:51;1.90;;;0.60;;
76393;SDS011;65216;51.090;-115.352;2024-03-02T11:31:18;2.40;;;0.70;;
76393;SDS011;65216;51.090;-115.352;2024-03-02T11:33:47;2.90;;;0.70;;
76393;SDS011;65216;51.090;-115.352;2024-03-02T11:36:15;4.70;;;0.90;;
76393;SDS011;65216;51.090;-115.352;2024-03-02T11:38:50;2.40;;;0.60;;
76393;SDS011;65216;51.090;-115.352;2024-03-02T11:41:19;5.00;;;0.80;;
76393;SDS011;65216;51.090;-115.352;2024-03-02T11:43:48;2.50;;;0.70;;
76393;SDS011;65216;51.090;-115.352;2024-03-02T11:46:15;4.10;;;0.80;;
76393;SDS011;65216;51.090;-115.352;2024-03-02T11:48:46;3.50;;;1.00;;
76393;SDS011;65216;51.090;-115.352;2024-03-02T11:51:13;3.80;;;0.80;;
76393;SDS011;65216;51.090;-115.352;2024-03-02T11:53:43;1.70;;;0.70;;
76393;SDS011;65216;51.090;-115.352;2024-03-02T11:56:12;4.40;;;0.90;;
76393;SDS011;65216;51.090;-115.352;2024-03-02T11:58:41;2.20;;;0.60;;
76393;SDS011;65216;51.090;-115.352;2024-03-02T12:01:10;3.10;;;0.70;;
76393;SDS011;65216;51.090;-115.352;2024-03-02T12:03:39;2.70;;;0.70;;
76393;SDS011;65216;51.090;-115.352;2024-03-02T12:06:06;2.80;;;0.70;;
76393;SDS011;65216;51.090;-115.352;2024-03-02T12:08:33;3.20;;;0.70;;
76393;SDS011;65216;51.090;-115.352;2024-03-02T12:11:02;3.30;;;1.00;;
76393;SDS011;65216;51.090;-115.352;2024-03-02T12:13:32;1.40;;;0.50;;
76393;SDS011;65216;51.090;-115.352;2024-03-02T12:16:00;2.40;;;0.70;;
76393;SDS011;65216;51.090;-115.352;2024-03-02T12:18:26;4.90;;;0.80;;
76393;SDS011;65216;51.090;-115.352;2024-03-02T12:20:56;3.80;;;0.50;;
76393;SDS011;65216;51.090;-115.352;2024-03-02T12:23:25;1.40;;;0.50;;
76393;SDS011;65216;51.090;-115.352;2024-03-02T12:25:52;1.80;;;0.60;;
76393;SDS011;65216;51.090;-115.352;2024-03-02T12:28:19;3.30;;;0.70;;
76393;SDS011;65216;51.090;-115.352;2024-03-02T12:30:46;0.70;;;0.40;;
76393;SDS011;65216;51.090;-115.352;2024-03-02T12:33:15;1.60;;;0.50;;
76393;SDS011;65216;51.090;-115.352;2024-03-02T12:35:42;1.80;;;0.50;;
76393;SDS011;65216;51.090;-115.352;2024-03-02T12:38:09;1.70;;;0.60;;
76393;SDS011;65216;51.090;-115.352;2024-03-02T12:40:37;1.40;;;0.50;;
76393;SDS011;65216;51.090;-115.352;2024-03-02T12:43:05;1.10;;;0.50;;
76393;SDS011;65216;51.090;-115.352;2024-03-02T12:45:37;1.30;;;0.50;;
76393;SDS011;65216;51.090;-115.352;2024-03-02T12:48:04;1.70;;;0.50;;
76393;SDS011;65216;51.090;-115.352;2024-03-02T12:50:33;0.30;;;0.30;;
76393;SDS011;65216;51.090;-115.352;2024-03-02T12:53:00;1.70;;;0.50;;
76393;SDS011;65216;51.090;-115.352;2024-03-02T12:55:28;1.20;;;0.50;;
76393;SDS011;65216;51.090;-115.352;2024-03-02T12:57:55;1.50;;;0.50;;
76393;SDS011;65216;51.090;-115.352;2024-03-02T13:00:25;1.80;;;0.60;;
76393;SDS011;65216;51.090;-115.352;2024-03-02T13:02:52;1.80;;;0.50;;
76393;SDS011;65216;51.090;-115.352;2024-03-02T13:05:22;1.10;;;0.40;;
76393;SDS011;65216;51.090;-115.352;2024-03-02T13:07:48;1.60;;;0.50;;
76393;SDS011;65216;51.090;-115.352;2024-03-02T13:10:16;0.70;;;0.40;;
76393;SDS011;65216;51.090;-115.352;2024-03-02T13:12:43;1.20;;;0.40;;
76393;SDS011;65216;51.090;-115.352;2024-03-02T13:15:11;0.40;;;0.30;;
76393;SDS011;65216;51.090;-115.352;2024-03-02T13:17:39;3.20;;;0.50;;
76393;SDS011;65216;51.090;-115.352;2024-03-02T13:20:13;3.30;;;0.50;;
76393;SDS011;65216;51.090;-115.352;2024-03-02T13:22:41;0.50;;;0.30;;
76393;SDS011;65216;51.090;-115.352;2024-03-02T13:25:08;0.50;;;0.20;;
76393;SDS011;65216;51.090;-115.352;2024-03-02T13:27:36;1.00;;;0.50;;
76393;SDS011;65216;51.090;-115.352;2024-03-02T13:30:04;0.80;;;0.40;;
76393;SDS011;65216;51.090;-115.352;2024-03-02T13:32:37;0.60;;;0.30;;
76393;SDS011;65216;51.090;-115.352;2024-03-02T13:35:04;0.20;;;0.10;;
76393;SDS011;65216;51.090;-115.352;2024-03-02T13:37:30;1.90;;;0.40;;
76393;SDS011;65216;51.090;-115.352;2024-03-02T13:39:57;0.50;;;0.40;;
76393;SDS011;65216;51.090;-115.352;2024-03-02T13:42:24;0.60;;;0.30;;
76393;SDS011;65216;51.090;-115.352;2024-03-02T13:44:51;1.40;;;0.40;;
76393;SDS011;65216;51.090;-115.352;2024-03-02T13:47:18;0.60;;;0.40;;
76393;SDS011;65216;51.090;-115.352;2024-03-02T13:49:46;1.10;;;0.60;;
76393;SDS011;65216;51.090;-115.352;2024-03-02T13:52:17;0.90;;;0.50;;
76393;SDS011;65216;51.090;-115.352;2024-03-02T13:54:47;1.00;;;0.40;;
76393;SDS011;65216;51.090;-115.352;2024-03-02T13:57:14;0.90;;;0.40;;
76393;SDS011;65216;51.090;-115.352;2024-03-02T13:59:45;0.80;;;0.40;;
76393;SDS011;65216;51.090;-115.352;2024-03-02T14:02:12;0.60;;;0.40;;
76393;SDS011;65216;51.090;-115.352;2024-03-02T14:04:39;1.30;;;0.40;;
76393;SDS011;65216;51.090;-115.352;2024-03-02T14:07:07;0.90;;;0.30;;
76393;SDS011;65216;51.090;-115.352;2024-03-02T14:09:34;0.70;;;0.40;;
76393;SDS011;65216;51.090;-115.352;2024-03-02T14:12:02;1.10;;;0.40;;
76393;SDS011;65216;51.090;-115.352;2024-03-02T14:14:30;0.50;;;0.30;;
76393;SDS011;65216;51.090;-115.352;2024-03-02T14:16:57;0.70;;;0.40;;